Accueil
METAR-TAF:

METAR-TAF

Aéroports :

Aéroport de Castres-Mazamet

Castres, France

latitude: 43-33-25N, longitude: 2-17-21E, altitude: 239 m

Observation

Le bulletin a été fait il y a 24 minutes, à 12:30 UTC
Vent 29 kt de sud-est avec des rafales jusqu'à 41 kt
Température 14°C
Humidité 72%
Pression 1016 hPa
Visibilité 10 km ou plus
pas de nuages en-dessous de 1500 mètres et pas de cumulonimbus.

METAR: LFCK 261230Z AUTO 13029G41KT CAVOK 14/09 Q1016 NOSIG

Heure: 13:54 (12:54 UTC)

Prévision

Le bulletin a été fait il y a 1 heure et 54 minutes, à 11:00 UTC
Prévision valable du 26 à 12 UTC au 26 à 21 UTC
Vent 24 kt de est/sud-est avec des rafales jusqu'à 34 kt
Visibilité 10 km ou plus
Nuages épars à une hauteur de 2500 ft
Temporairement
du 26 à 12 UTC au 26 à 21 UTC
Vent 32 kt de est/sud-est avec des rafales jusqu'à 44 kt

TAF: LFCK 261100Z 2612/2621 12024G34KT 9999 SCT025 TEMPO 2612/2621 12032G44KT

Observations et prévisions météorologiques de plus de 4000 aéroports (messages METAR et TAF).

Les stations disponibles sont représentées par des disques jaunes et rouges sur la carte.

Passer la souris dessus pour voir le nom de la station.

Cliquer dessus pour voir les observations et prévisions météorologiques.

Pour changer de carte: cliquez sur les boutons verts avec une croix noire pour zoomer, sur le bouton vert avec un tiret pour effectuer un zoom arrière, ou sur les flèches vertes pour les cartes adjacentes.


METAR-TAF: